Terminal Aerodrome Forecast
Issued by NWS Sterling, VA

Current Version | Previous Version | Text Only | Print | Product List | Glossary Off
Versions: 1 2 3 4 5 6 7 8 9 10 11 12 13 14 15

277
FTUS41 KLWX 032058 AAB
TAFMRB
TAF AMD
KMRB 032058Z 0321/0418 16007KT P6SM OVC120
     FM040100 30006KT 3SM BR BKN030
     FM041000 32009KT 5SM BR OVC100=

USA.gov is the U.S. government's official web portal to all federal, state and local government web resources and services.